createdAt,value
2019-03-23T10:01:14.107Z,1.00
2019-03-23T10:03:43.011Z,1.00
2019-03-23T10:06:11.485Z,1.00
2019-03-23T10:08:39.913Z,1.00
2019-03-23T10:11:09.172Z,1.00
2019-03-23T10:13:37.809Z,1.00
2019-03-23T10:16:06.261Z,1.00
2019-03-23T10:18:34.698Z,1.00
2019-03-23T10:21:03.193Z,1.00
2019-03-23T10:23:31.609Z,1.00
2019-03-23T10:26:00.023Z,1.00
2019-03-23T10:28:28.879Z,1.00
2019-03-23T10:30:57.367Z,1.00
2019-03-23T10:33:25.789Z,1.00
2019-03-23T10:35:54.199Z,1.00
2019-03-23T10:38:22.693Z,1.00
2019-03-23T10:40:51.118Z,1.00
2019-03-23T10:43:19.835Z,1.00
2019-03-23T10:45:48.314Z,1.00
2019-03-23T10:48:16.801Z,1.00
2019-03-23T10:50:45.263Z,1.00
2019-03-23T10:53:22.756Z,1.00
2019-03-23T10:55:43.961Z,1.00
2019-03-23T10:58:12.603Z,1.00
2019-03-23T11:00:41.073Z,1.00
2019-03-23T11:03:09.566Z,1.00
2019-03-23T11:05:37.987Z,1.00
2019-03-23T11:08:06.417Z,1.00
2019-03-23T11:10:41.678Z,1.00
2019-03-23T11:13:04.977Z,1.00
2019-03-23T11:15:33.391Z,1.00
2019-03-23T11:18:02.086Z,1.00
2019-03-23T11:20:30.730Z,1.00
2019-03-23T11:22:59.193Z,1.00
2019-03-23T11:25:27.857Z,1.00
2019-03-23T11:27:56.272Z,1.00
2019-03-23T11:30:24.685Z,1.00
2019-03-23T11:32:53.327Z,1.00
2019-03-23T11:35:21.859Z,1.00
2019-03-23T11:37:50.595Z,1.00
2019-03-23T11:40:19.177Z,1.00
2019-03-23T11:42:50.227Z,1.00
2019-03-23T11:45:17.996Z,1.00
2019-03-23T11:47:46.435Z,1.00
2019-03-23T11:50:14.991Z,1.00
2019-03-23T11:52:43.662Z,1.00
2019-03-23T11:55:12.260Z,1.00
2019-03-23T11:57:40.944Z,1.00
2019-03-23T12:00:12.705Z,1.00
2019-03-23T12:02:41.189Z,1.00
2019-03-23T12:05:09.757Z,1.00
2019-03-23T12:07:38.160Z,1.00
2019-03-23T12:10:09.793Z,1.00
2019-03-23T12:12:38.213Z,1.00
2019-03-23T12:15:09.586Z,1.00
2019-03-23T12:17:37.994Z,1.00
2019-03-23T12:20:08.058Z,1.00
2019-03-23T12:22:36.481Z,1.00
2019-03-23T12:25:05.852Z,1.00
2019-03-23T12:27:34.491Z,1.00
2019-03-23T12:30:07.506Z,1.00
2019-03-23T12:32:33.485Z,1.00
2019-03-23T12:35:02.163Z,1.00
2019-03-23T12:37:30.562Z,1.00
2019-03-23T12:39:58.988Z,1.00
2019-03-23T12:42:27.406Z,1.00
2019-03-23T12:44:55.849Z,1.00
2019-03-23T12:47:24.261Z,1.00
2019-03-23T12:49:52.734Z,1.00
2019-03-23T12:52:21.206Z,1.00
2019-03-23T12:54:49.630Z,1.00
2019-03-23T12:57:18.050Z,1.00
2019-03-23T12:59:46.478Z,1.00
2019-03-23T13:02:15.158Z,1.00
2019-03-23T13:04:43.832Z,1.00
2019-03-23T13:07:12.292Z,1.00
2019-03-23T13:09:40.882Z,1.00
2019-03-23T13:12:09.353Z,1.00
2019-03-23T13:14:37.787Z,1.00
2019-03-23T13:17:06.203Z,1.00
2019-03-23T13:19:34.622Z,1.00
2019-03-23T13:22:03.054Z,1.00
2019-03-23T13:24:31.476Z,1.00
2019-03-23T13:26:59.958Z,1.00
2019-03-23T13:29:28.612Z,1.00
2019-03-23T13:31:57.294Z,1.00
2019-03-23T13:34:25.750Z,1.00
2019-03-23T13:36:54.176Z,1.00
2019-03-23T13:39:22.643Z,1.00
2019-03-23T13:41:51.314Z,1.00
2019-03-23T13:44:19.826Z,1.00
2019-03-23T13:46:48.249Z,1.00
2019-03-23T13:49:16.660Z,1.00
2019-03-23T13:51:45.349Z,1.00
2019-03-23T13:54:14.015Z,1.00
2019-03-23T13:56:42.686Z,1.00
2019-03-23T13:59:11.310Z,1.00
2019-03-23T14:01:39.944Z,1.00
2019-03-23T14:04:08.693Z,1.00
2019-03-23T14:06:37.375Z,1.00
2019-03-23T14:09:06.734Z,1.00
2019-03-23T14:11:35.382Z,1.00
2019-03-23T14:14:04.330Z,1.00
2019-03-23T14:16:32.981Z,1.00
2019-03-23T14:19:01.711Z,1.00
2019-03-23T14:21:30.163Z,1.00
2019-03-23T14:23:58.656Z,1.00
2019-03-23T14:26:27.405Z,1.00
2019-03-23T14:28:55.816Z,1.00
2019-03-23T14:31:24.493Z,1.00
2019-03-23T14:33:53.328Z,1.00
2019-03-23T14:36:21.980Z,1.00
2019-03-23T14:38:50.665Z,1.00
2019-03-23T14:41:19.111Z,1.00
2019-03-23T14:43:47.838Z,1.00
2019-03-23T14:46:16.310Z,1.00
2019-03-23T14:48:44.750Z,1.00
2019-03-23T14:51:13.438Z,1.00
2019-03-23T14:53:41.997Z,1.00
2019-03-23T14:56:10.579Z,1.00
2019-03-23T14:58:38.995Z,1.00
2019-03-23T15:01:07.670Z,1.00
2019-03-23T15:03:36.081Z,1.00
2019-03-23T15:06:04.508Z,1.00
2019-03-23T15:08:32.917Z,1.00
2019-03-23T15:11:01.412Z,1.00
2019-03-23T15:13:32.329Z,1.00
2019-03-23T15:16:00.754Z,1.00
2019-03-23T15:18:29.238Z,1.00
2019-03-23T15:20:57.657Z,1.00
2019-03-23T15:23:26.065Z,1.00
2019-03-23T15:25:54.812Z,1.00
2019-03-23T15:28:23.272Z,1.00
2019-03-23T15:30:52.134Z,1.00
2019-03-23T15:33:20.598Z,1.00
2019-03-23T15:35:49.389Z,1.00
2019-03-23T15:38:17.816Z,1.00
2019-03-23T15:40:46.302Z,1.00
2019-03-23T15:43:14.802Z,1.00
2019-03-23T15:45:43.222Z,1.00
2019-03-23T15:48:11.980Z,1.00
2019-03-23T15:50:40.491Z,1.00
2019-03-23T15:53:09.215Z,1.00
2019-03-23T15:55:37.681Z,1.00
2019-03-23T15:58:06.114Z,1.00
2019-03-23T16:00:34.650Z,1.00
2019-03-23T16:03:03.173Z,1.00
2019-03-23T16:05:31.643Z,1.00
2019-03-23T16:08:00.074Z,1.00
2019-03-23T16:10:28.499Z,1.00
2019-03-23T16:12:57.227Z,1.00
2019-03-23T16:15:25.831Z,1.00
2019-03-23T16:17:54.375Z,1.00
2019-03-23T16:20:23.036Z,1.00
2019-03-23T16:22:51.461Z,1.00
2019-03-23T16:25:20.432Z,1.00
2019-03-23T16:27:49.199Z,1.00
2019-03-23T16:30:20.795Z,1.00
2019-03-23T16:32:49.299Z,1.00
2019-03-23T16:35:17.725Z,1.00
2019-03-23T16:37:46.176Z,1.00
2019-03-23T16:40:14.994Z,1.00
2019-03-23T16:42:45.458Z,1.00
2019-03-23T16:45:14.061Z,1.00
2019-03-23T16:47:42.670Z,1.00
2019-03-23T16:50:11.357Z,1.00
2019-03-23T16:52:40.024Z,1.00
2019-03-23T16:55:09.516Z,1.00
2019-03-23T16:57:37.984Z,1.30
2019-03-23T17:00:11.818Z,1.80
2019-03-23T17:02:40.329Z,3.50
2019-03-23T17:05:09.024Z,3.50
2019-03-23T17:07:37.535Z,4.30
2019-03-23T17:10:07.906Z,5.30
2019-03-23T17:12:36.387Z,5.50
2019-03-23T17:15:08.373Z,5.90
2019-03-23T17:17:36.918Z,7.00
2019-03-23T17:20:06.038Z,6.60
2019-03-23T17:22:34.606Z,7.30
2019-03-23T17:25:04.090Z,8.30
2019-03-23T17:27:32.529Z,8.90
2019-03-23T17:30:01.202Z,9.00
2019-03-23T17:32:29.646Z,10.30
2019-03-23T17:34:58.072Z,10.00
2019-03-23T17:37:26.740Z,10.70
2019-03-23T17:39:55.223Z,11.20
2019-03-23T17:42:23.723Z,12.30
2019-03-23T17:44:52.151Z,12.30
2019-03-23T17:47:20.588Z,12.40
2019-03-23T17:49:49.246Z,12.60
2019-03-23T17:52:17.934Z,13.50
2019-03-23T17:54:46.879Z,14.80
2019-03-23T17:57:15.405Z,15.20
2019-03-23T17:59:43.829Z,15.90
2019-03-23T18:02:12.370Z,16.20
2019-03-23T18:04:40.846Z,16.60
2019-03-23T18:07:09.569Z,17.20
2019-03-23T18:09:38.244Z,17.70
2019-03-23T18:12:06.786Z,18.00
2019-03-23T18:14:35.232Z,18.50
2019-03-23T18:17:03.862Z,19.20
2019-03-23T18:19:32.347Z,19.50
2019-03-23T18:22:00.762Z,19.90
2019-03-23T18:24:29.197Z,20.20
2019-03-23T18:26:57.639Z,20.70
2019-03-23T18:29:26.155Z,21.00
2019-03-23T18:31:54.829Z,21.20
2019-03-23T18:34:23.314Z,21.50
2019-03-23T18:36:52.397Z,22.70
2019-03-23T18:39:20.886Z,23.20
2019-03-23T18:41:49.305Z,23.00
2019-03-23T18:44:17.988Z,23.70
2019-03-23T18:46:46.628Z,24.70
2019-03-23T18:49:15.116Z,25.00
2019-03-23T18:51:43.537Z,25.40
2019-03-23T18:54:11.978Z,26.20
2019-03-23T18:56:40.406Z,26.60
2019-03-23T18:59:09.064Z,26.90
2019-03-23T19:01:37.529Z,27.40
2019-03-23T19:04:06.176Z,28.20
2019-03-23T19:06:34.855Z,29.40
2019-03-23T19:09:04.613Z,30.10
2019-03-23T19:11:33.248Z,31.90
2019-03-23T19:14:01.730Z,32.20
2019-03-23T19:16:30.168Z,34.10
2019-03-23T19:18:58.815Z,34.50
2019-03-23T19:21:27.270Z,35.60
2019-03-23T19:23:55.939Z,36.30
2019-03-23T19:26:24.383Z,37.80
2019-03-23T19:28:52.799Z,39.30
2019-03-23T19:31:21.242Z,41.00
2019-03-23T19:33:49.679Z,43.00
2019-03-23T19:36:18.111Z,44.80
2019-03-23T19:38:46.531Z,46.20
2019-03-23T19:41:15.217Z,48.90
2019-03-23T19:43:48.976Z,50.00
2019-03-23T19:46:14.297Z,51.00
2019-03-23T19:48:42.833Z,52.70
2019-03-23T19:51:11.280Z,54.20
2019-03-23T19:53:39.702Z,55.30
2019-03-23T19:56:08.357Z,57.20
2019-03-23T19:58:36.933Z,58.70
2019-03-23T20:01:05.578Z,59.60
2019-03-23T20:03:34.035Z,61.20
2019-03-23T20:06:02.481Z,61.90
2019-03-23T20:08:30.929Z,63.70
2019-03-23T20:10:59.571Z,63.30
2019-03-23T20:13:28.259Z,64.20
2019-03-23T20:15:56.947Z,65.40
2019-03-23T20:18:25.426Z,66.80
2019-03-23T20:20:54.191Z,67.80
2019-03-23T20:23:22.626Z,67.70
2019-03-23T20:25:51.161Z,68.00
2019-03-23T20:28:19.873Z,68.60
2019-03-23T20:30:48.522Z,69.00
2019-03-23T20:33:19.683Z,69.70
2019-03-23T20:35:47.570Z,70.40
2019-03-23T20:38:16.030Z,71.60
2019-03-23T20:40:44.470Z,72.10
2019-03-23T20:43:12.917Z,72.40
2019-03-23T20:45:41.350Z,72.70
2019-03-23T20:48:10.623Z,72.70
2019-03-23T20:50:39.267Z,72.80
2019-03-23T20:53:07.965Z,73.50
2019-03-23T20:55:36.438Z,73.10
2019-03-23T20:58:04.870Z,73.20
2019-03-23T21:00:33.515Z,73.50
2019-03-23T21:03:01.975Z,73.70
2019-03-23T21:05:34.190Z,73.70
2019-03-23T21:08:00.548Z,74.50
2019-03-23T21:10:28.966Z,73.90
2019-03-23T21:12:57.388Z,73.90
2019-03-23T21:15:25.813Z,74.50
2019-03-23T21:17:54.232Z,74.40
2019-03-23T21:20:22.869Z,74.90
2019-03-23T21:22:51.325Z,74.80
2019-03-23T21:25:19.770Z,75.40
2019-03-23T21:27:48.189Z,76.00
2019-03-23T21:30:17.777Z,76.80
2019-03-23T21:32:46.402Z,77.20
2019-03-23T21:35:15.968Z,77.30
2019-03-23T21:37:44.519Z,77.40
2019-03-23T21:40:13.074Z,77.60
2019-03-23T21:42:41.511Z,77.70
2019-03-23T21:45:10.736Z,78.00
2019-03-23T21:47:39.178Z,78.40
2019-03-23T21:50:08.246Z,78.60
2019-03-23T21:52:36.679Z,78.80
2019-03-23T21:55:06.658Z,79.00
2019-03-23T21:57:35.378Z,79.10
2019-03-23T22:00:05.889Z,79.40
2019-03-23T22:02:34.574Z,79.50
2019-03-23T22:05:03.058Z,79.80
2019-03-23T22:07:31.490Z,80.40
2019-03-23T22:10:00.257Z,80.90
2019-03-23T22:12:28.767Z,82.10
2019-03-23T22:14:57.181Z,82.70
2019-03-23T22:17:25.824Z,82.90
2019-03-23T22:19:54.533Z,83.10
2019-03-23T22:22:22.961Z,83.00
2019-03-23T22:24:51.626Z,83.40
2019-03-23T22:27:20.281Z,83.60
2019-03-23T22:29:48.740Z,83.50
2019-03-23T22:32:17.172Z,83.10
2019-03-23T22:34:45.589Z,83.10
2019-03-23T22:37:14.026Z,83.40
2019-03-23T22:39:42.446Z,83.40
2019-03-23T22:42:11.087Z,83.30
2019-03-23T22:44:39.547Z,83.60
2019-03-23T22:47:07.981Z,83.90
2019-03-23T22:49:36.401Z,84.30
2019-03-23T22:52:04.834Z,84.60
2019-03-23T22:54:33.252Z,84.90
2019-03-23T22:57:01.932Z,84.90
2019-03-23T22:59:30.602Z,85.10
2019-03-23T23:01:59.258Z,85.10
2019-03-23T23:04:27.736Z,85.30
2019-03-23T23:06:56.161Z,85.30
2019-03-23T23:09:24.821Z,85.20
2019-03-23T23:11:53.256Z,85.30
2019-03-23T23:14:21.676Z,85.40
2019-03-23T23:16:50.110Z,85.60
2019-03-23T23:19:18.768Z,85.90
2019-03-23T23:21:47.185Z,86.30
2019-03-23T23:24:15.615Z,86.70
2019-03-23T23:26:44.037Z,87.20
2019-03-23T23:29:12.474Z,87.50
2019-03-23T23:31:40.885Z,87.70
2019-03-23T23:34:09.557Z,87.60
2019-03-23T23:36:37.990Z,87.50
2019-03-23T23:39:07.693Z,87.30
2019-03-23T23:41:36.339Z,87.30
2019-03-23T23:44:04.871Z,87.40
2019-03-23T23:46:33.588Z,87.60
2019-03-23T23:49:02.049Z,87.80
2019-03-23T23:51:30.470Z,88.30
2019-03-23T23:53:59.104Z,88.60
2019-03-23T23:56:27.819Z,88.60
2019-03-23T23:58:56.252Z,88.60
